sensor_id;sensor_type;location;lat;lon;timestamp;temperature;humidity
9265;DHT22;4669;49.594;10.958;2022-07-29T00:04:29;22.70;62.00
9265;DHT22;4669;49.594;10.958;2022-07-29T00:09:31;22.70;62.20
9265;DHT22;4669;49.594;10.958;2022-07-29T00:14:34;22.70;62.40
9265;DHT22;4669;49.594;10.958;2022-07-29T00:19:38;22.70;62.20
9265;DHT22;4669;49.594;10.958;2022-07-29T00:24:40;22.80;61.70
9265;DHT22;4669;49.594;10.958;2022-07-29T00:29:42;22.80;61.70
9265;DHT22;4669;49.594;10.958;2022-07-29T00:34:45;22.80;61.30
9265;DHT22;4669;49.594;10.958;2022-07-29T00:40:06;22.70;61.50
9265;DHT22;4669;49.594;10.958;2022-07-29T00:45:09;22.70;61.20
9265;DHT22;4669;49.594;10.958;2022-07-29T00:50:12;22.70;61.30
9265;DHT22;4669;49.594;10.958;2022-07-29T00:55:16;22.70;61.50
9265;DHT22;4669;49.594;10.958;2022-07-29T01:00:19;22.60;61.30
9265;DHT22;4669;49.594;10.958;2022-07-29T01:05:25;22.70;60.90
9265;DHT22;4669;49.594;10.958;2022-07-29T01:10:29;22.70;61.20
9265;DHT22;4669;49.594;10.958;2022-07-29T01:15:33;22.70;61.00
9265;DHT22;4669;49.594;10.958;2022-07-29T01:20:53;22.70;60.60
9265;DHT22;4669;49.594;10.958;2022-07-29T01:31:43;22.60;60.60
9265;DHT22;4669;49.594;10.958;2022-07-29T01:36:51;22.50;60.90
9265;DHT22;4669;49.594;10.958;2022-07-29T01:41:59;22.40;61.00
9265;DHT22;4669;49.594;10.958;2022-07-29T01:47:16;22.50;61.00
9265;DHT22;4669;49.594;10.958;2022-07-29T01:52:26;22.50;61.80
9265;DHT22;4669;49.594;10.958;2022-07-29T01:57:32;22.50;61.40
9265;DHT22;4669;49.594;10.958;2022-07-29T02:02:37;22.50;61.80
9265;DHT22;4669;49.594;10.958;2022-07-29T02:07:42;22.40;62.30
9265;DHT22;4669;49.594;10.958;2022-07-29T02:12:45;22.30;62.70
9265;DHT22;4669;49.594;10.958;2022-07-29T02:17:53;22.20;63.10
9265;DHT22;4669;49.594;10.958;2022-07-29T02:22:57;22.10;63.30
9265;DHT22;4669;49.594;10.958;2022-07-29T02:28:00;22.10;63.80
9265;DHT22;4669;49.594;10.958;2022-07-29T02:33:05;22.10;64.00
9265;DHT22;4669;49.594;10.958;2022-07-29T02:38:08;22.00;63.90
9265;DHT22;4669;49.594;10.958;2022-07-29T02:43:29;21.90;64.60
9265;DHT22;4669;49.594;10.958;2022-07-29T02:53:44;21.80;65.10
9265;DHT22;4669;49.594;10.958;2022-07-29T02:58:58;21.70;65.00
9265;DHT22;4669;49.594;10.958;2022-07-29T03:04:03;21.60;65.60
9265;DHT22;4669;49.594;10.958;2022-07-29T03:09:07;21.50;65.80
9265;DHT22;4669;49.594;10.958;2022-07-29T03:14:12;21.50;66.00
9265;DHT22;4669;49.594;10.958;2022-07-29T03:19:14;21.50;66.40
9265;DHT22;4669;49.594;10.958;2022-07-29T03:24:29;21.40;66.60
9265;DHT22;4669;49.594;10.958;2022-07-29T03:29:31;21.40;66.50
9265;DHT22;4669;49.594;10.958;2022-07-29T03:34:33;21.40;66.70
9265;DHT22;4669;49.594;10.958;2022-07-29T03:39:40;21.30;67.30
9265;DHT22;4669;49.594;10.958;2022-07-29T03:44:46;21.20;67.00
9265;DHT22;4669;49.594;10.958;2022-07-29T03:49:50;21.20;66.90
9265;DHT22;4669;49.594;10.958;2022-07-29T03:54:55;21.20;66.90
9265;DHT22;4669;49.594;10.958;2022-07-29T03:59:57;21.10;67.10
9265;DHT22;4669;49.594;10.958;2022-07-29T04:05:00;21.20;67.60
9265;DHT22;4669;49.594;10.958;2022-07-29T04:10:04;21.10;67.70
9265;DHT22;4669;49.594;10.958;2022-07-29T04:15:07;21.10;67.80
9265;DHT22;4669;49.594;10.958;2022-07-29T04:20:10;21.10;68.20
9265;DHT22;4669;49.594;10.958;2022-07-29T04:25:15;21.00;68.80
9265;DHT22;4669;49.594;10.958;2022-07-29T04:30:17;21.00;68.90
9265;DHT22;4669;49.594;10.958;2022-07-29T04:35:19;20.90;69.60
9265;DHT22;4669;49.594;10.958;2022-07-29T04:40:23;21.00;69.60
9265;DHT22;4669;49.594;10.958;2022-07-29T04:45:25;21.00;69.90
9265;DHT22;4669;49.594;10.958;2022-07-29T04:50:27;21.00;70.40
9265;DHT22;4669;49.594;10.958;2022-07-29T04:55:31;20.90;70.80
9265;DHT22;4669;49.594;10.958;2022-07-29T05:00:33;20.80;71.90
9265;DHT22;4669;49.594;10.958;2022-07-29T05:05:35;20.90;72.30
9265;DHT22;4669;49.594;10.958;2022-07-29T05:10:39;20.90;72.40
9265;DHT22;4669;49.594;10.958;2022-07-29T05:15:42;21.00;72.30
9265;DHT22;4669;49.594;10.958;2022-07-29T05:20:44;21.10;72.00
9265;DHT22;4669;49.594;10.958;2022-07-29T05:25:47;21.20;71.30
9265;DHT22;4669;49.594;10.958;2022-07-29T05:30:50;21.30;70.70
9265;DHT22;4669;49.594;10.958;2022-07-29T05:35:52;21.30;70.60
9265;DHT22;4669;49.594;10.958;2022-07-29T05:40:57;21.30;71.90
9265;DHT22;4669;49.594;10.958;2022-07-29T05:46:00;21.00;72.30
9265;DHT22;4669;49.594;10.958;2022-07-29T05:51:02;21.00;71.80
9265;DHT22;4669;49.594;10.958;2022-07-29T05:56:06;20.90;70.70
9265;DHT22;4669;49.594;10.958;2022-07-29T06:01:08;21.00;70.00
9265;DHT22;4669;49.594;10.958;2022-07-29T06:06:11;21.00;69.60
9265;DHT22;4669;49.594;10.958;2022-07-29T06:11:14;21.10;69.80
9265;DHT22;4669;49.594;10.958;2022-07-29T06:16:16;21.30;68.50
9265;DHT22;4669;49.594;10.958;2022-07-29T06:21:18;21.40;67.50
9265;DHT22;4669;49.594;10.958;2022-07-29T06:26:21;21.40;67.30
9265;DHT22;4669;49.594;10.958;2022-07-29T06:31:23;21.50;67.00
9265;DHT22;4669;49.594;10.958;2022-07-29T06:36:25;21.60;66.60
9265;DHT22;4669;49.594;10.958;2022-07-29T06:41:29;21.70;66.60
9265;DHT22;4669;49.594;10.958;2022-07-29T06:46:32;21.80;66.70
9265;DHT22;4669;49.594;10.958;2022-07-29T06:51:34;21.90;67.00
9265;DHT22;4669;49.594;10.958;2022-07-29T06:56:37;22.00;67.30
9265;DHT22;4669;49.594;10.958;2022-07-29T07:01:42;22.10;67.10
9265;DHT22;4669;49.594;10.958;2022-07-29T07:06:44;22.20;67.50
9265;DHT22;4669;49.594;10.958;2022-07-29T07:11:48;22.30;67.50
9265;DHT22;4669;49.594;10.958;2022-07-29T07:16:50;22.30;67.30
9265;DHT22;4669;49.594;10.958;2022-07-29T07:21:52;22.40;68.00
9265;DHT22;4669;49.594;10.958;2022-07-29T07:26:56;22.50;67.60
9265;DHT22;4669;49.594;10.958;2022-07-29T07:31:58;22.60;67.60
9265;DHT22;4669;49.594;10.958;2022-07-29T07:37:00;22.70;67.80
9265;DHT22;4669;49.594;10.958;2022-07-29T07:42:03;22.80;67.60
9265;DHT22;4669;49.594;10.958;2022-07-29T07:47:05;22.90;67.70
9265;DHT22;4669;49.594;10.958;2022-07-29T07:52:07;23.10;67.90
9265;DHT22;4669;49.594;10.958;2022-07-29T07:57:11;23.30;68.00
9265;DHT22;4669;49.594;10.958;2022-07-29T08:02:13;23.30;67.40
9265;DHT22;4669;49.594;10.958;2022-07-29T08:07:15;23.30;67.70
9265;DHT22;4669;49.594;10.958;2022-07-29T08:12:18;23.40;67.60
9265;DHT22;4669;49.594;10.958;2022-07-29T08:17:20;23.50;67.90
9265;DHT22;4669;49.594;10.958;2022-07-29T08:22:22;23.60;68.60
9265;DHT22;4669;49.594;10.958;2022-07-29T08:27:25;23.60;68.20
9265;DHT22;4669;49.594;10.958;2022-07-29T08:32:29;23.80;68.40
9265;DHT22;4669;49.594;10.958;2022-07-29T08:37:31;23.90;67.60
9265;DHT22;4669;49.594;10.958;2022-07-29T08:42:35;24.10;68.40
9265;DHT22;4669;49.594;10.958;2022-07-29T08:47:38;24.30;67.90
9265;DHT22;4669;49.594;10.958;2022-07-29T08:52:42;24.40;67.80
9265;DHT22;4669;49.594;10.958;2022-07-29T08:57:46;24.50;68.00
9265;DHT22;4669;49.594;10.958;2022-07-29T09:02:51;24.50;67.50
9265;DHT22;4669;49.594;10.958;2022-07-29T09:07:56;24.60;67.50
9265;DHT22;4669;49.594;10.958;2022-07-29T09:13:00;24.90;68.10
9265;DHT22;4669;49.594;10.958;2022-07-29T09:18:02;25.10;68.20
9265;DHT22;4669;49.594;10.958;2022-07-29T09:23:08;25.30;66.80
9265;DHT22;4669;49.594;10.958;2022-07-29T09:28:12;25.40;66.60
9265;DHT22;4669;49.594;10.958;2022-07-29T09:33:14;25.50;67.10
9265;DHT22;4669;49.594;10.958;2022-07-29T09:38:16;25.40;66.20
9265;DHT22;4669;49.594;10.958;2022-07-29T09:43:20;25.30;65.70
9265;DHT22;4669;49.594;10.958;2022-07-29T09:48:23;25.20;65.70
9265;DHT22;4669;49.594;10.958;2022-07-29T09:53:33;25.10;66.00
9265;DHT22;4669;49.594;10.958;2022-07-29T09:58:37;25.10;67.20
9265;DHT22;4669;49.594;10.958;2022-07-29T10:03:50;25.20;66.60
9265;DHT22;4669;49.594;10.958;2022-07-29T10:08:52;25.20;65.90
9265;DHT22;4669;49.594;10.958;2022-07-29T10:13:56;25.40;65.70
9265;DHT22;4669;49.594;10.958;2022-07-29T10:18:59;25.50;65.80
9265;DHT22;4669;49.594;10.958;2022-07-29T10:24:01;25.60;66.20
9265;DHT22;4669;49.594;10.958;2022-07-29T10:29:05;25.80;65.00
9265;DHT22;4669;49.594;10.958;2022-07-29T10:34:13;26.10;65.60
9265;DHT22;4669;49.594;10.958;2022-07-29T10:39:30;26.30;64.50
9265;DHT22;4669;49.594;10.958;2022-07-29T10:44:39;26.30;64.30
9265;DHT22;4669;49.594;10.958;2022-07-29T10:49:55;26.30;64.40
9265;DHT22;4669;49.594;10.958;2022-07-29T10:54:58;26.30;66.10
9265;DHT22;4669;49.594;10.958;2022-07-29T11:00:29;26.20;65.30
9265;DHT22;4669;49.594;10.958;2022-07-29T11:05:52;26.20;66.90
9265;DHT22;4669;49.594;10.958;2022-07-29T11:17:01;26.10;66.50
9265;DHT22;4669;49.594;10.958;2022-07-29T11:22:08;26.10;65.40
9265;DHT22;4669;49.594;10.958;2022-07-29T11:27:14;26.10;65.60
9265;DHT22;4669;49.594;10.958;2022-07-29T11:32:19;26.20;65.70
9265;DHT22;4669;49.594;10.958;2022-07-29T11:37:22;26.30;65.00
9265;DHT22;4669;49.594;10.958;2022-07-29T11:42:44;26.50;65.10
9265;DHT22;4669;49.594;10.958;2022-07-29T11:47:50;26.70;65.80
9265;DHT22;4669;49.594;10.958;2022-07-29T11:52:53;26.80;65.80
9265;DHT22;4669;49.594;10.958;2022-07-29T11:57:57;26.90;66.50
9265;DHT22;4669;49.594;10.958;2022-07-29T12:03:02;27.10;65.90
9265;DHT22;4669;49.594;10.958;2022-07-29T12:08:13;27.30;65.70
9265;DHT22;4669;49.594;10.958;2022-07-29T12:13:16;27.20;64.90
9265;DHT22;4669;49.594;10.958;2022-07-29T12:18:21;27.20;63.90
9265;DHT22;4669;49.594;10.958;2022-07-29T12:23:23;27.30;62.20
9265;DHT22;4669;49.594;10.958;2022-07-29T12:28:25;27.40;64.50
9265;DHT22;4669;49.594;10.958;2022-07-29T12:33:29;27.50;65.20
9265;DHT22;4669;49.594;10.958;2022-07-29T12:38:31;27.80;63.50
9265;DHT22;4669;49.594;10.958;2022-07-29T12:43:33;28.00;63.00
9265;DHT22;4669;49.594;10.958;2022-07-29T12:48:38;28.20;63.10
9265;DHT22;4669;49.594;10.958;2022-07-29T12:53:40;28.10;62.60
9265;DHT22;4669;49.594;10.958;2022-07-29T12:58:42;28.20;63.80
9265;DHT22;4669;49.594;10.958;2022-07-29T13:03:49;28.50;61.40
9265;DHT22;4669;49.594;10.958;2022-07-29T13:09:00;28.50;59.50
9265;DHT22;4669;49.594;10.958;2022-07-29T13:14:02;28.50;60.50
9265;DHT22;4669;49.594;10.958;2022-07-29T13:19:10;28.80;59.50
9265;DHT22;4669;49.594;10.958;2022-07-29T13:24:12;29.10;59.80
9265;DHT22;4669;49.594;10.958;2022-07-29T13:29:14;29.30;58.50
9265;DHT22;4669;49.594;10.958;2022-07-29T13:34:18;29.50;58.80
9265;DHT22;4669;49.594;10.958;2022-07-29T13:39:21;29.20;57.70
9265;DHT22;4669;49.594;10.958;2022-07-29T13:44:23;29.00;57.30
9265;DHT22;4669;49.594;10.958;2022-07-29T13:49:26;29.10;57.30
9265;DHT22;4669;49.594;10.958;2022-07-29T13:54:28;28.90;58.40
9265;DHT22;4669;49.594;10.958;2022-07-29T13:59:31;28.60;57.30
9265;DHT22;4669;49.594;10.958;2022-07-29T14:04:34;28.10;58.60
9265;DHT22;4669;49.594;10.958;2022-07-29T14:09:36;27.80;59.50
9265;DHT22;4669;49.594;10.958;2022-07-29T14:14:38;27.50;63.30
9265;DHT22;4669;49.594;10.958;2022-07-29T14:19:43;27.40;65.00
9265;DHT22;4669;49.594;10.958;2022-07-29T14:24:45;27.10;66.50
9265;DHT22;4669;49.594;10.958;2022-07-29T14:29:47;26.90;67.50
9265;DHT22;4669;49.594;10.958;2022-07-29T14:34:51;26.60;66.50
9265;DHT22;4669;49.594;10.958;2022-07-29T14:39:53;26.20;75.10
9265;DHT22;4669;49.594;10.958;2022-07-29T14:45:00;25.60;84.50
9265;DHT22;4669;49.594;10.958;2022-07-29T14:50:04;25.00;89.10
9265;DHT22;4669;49.594;10.958;2022-07-29T14:55:07;24.60;90.40
9265;DHT22;4669;49.594;10.958;2022-07-29T15:00:10;24.30;91.80
9265;DHT22;4669;49.594;10.958;2022-07-29T15:05:14;24.00;93.40
9265;DHT22;4669;49.594;10.958;2022-07-29T15:10:16;23.80;94.40
9265;DHT22;4669;49.594;10.958;2022-07-29T15:15:18;23.70;94.00
9265;DHT22;4669;49.594;10.958;2022-07-29T15:20:21;23.70;94.90
9265;DHT22;4669;49.594;10.958;2022-07-29T15:25:26;23.50;95.60
9265;DHT22;4669;49.594;10.958;2022-07-29T15:30:29;23.30;95.70
9265;DHT22;4669;49.594;10.958;2022-07-29T15:35:33;23.20;96.60
9265;DHT22;4669;49.594;10.958;2022-07-29T15:40:36;22.90;96.90
9265;DHT22;4669;49.594;10.958;2022-07-29T15:45:39;22.60;97.50
9265;DHT22;4669;49.594;10.958;2022-07-29T15:50:43;22.60;97.90
9265;DHT22;4669;49.594;10.958;2022-07-29T15:55:45;22.60;98.30
9265;DHT22;4669;49.594;10.958;2022-07-29T16:00:47;22.60;96.60
9265;DHT22;4669;49.594;10.958;2022-07-29T16:05:50;22.30;97.20
9265;DHT22;4669;49.594;10.958;2022-07-29T16:10:52;22.10;97.80
9265;DHT22;4669;49.594;10.958;2022-07-29T16:15:54;22.00;98.10
9265;DHT22;4669;49.594;10.958;2022-07-29T16:20:58;22.00;98.30
9265;DHT22;4669;49.594;10.958;2022-07-29T16:26:00;22.00;98.60
9265;DHT22;4669;49.594;10.958;2022-07-29T16:31:02;22.10;98.70
9265;DHT22;4669;49.594;10.958;2022-07-29T16:36:06;22.00;98.90
9265;DHT22;4669;49.594;10.958;2022-07-29T16:41:08;21.90;98.80
9265;DHT22;4669;49.594;10.958;2022-07-29T16:46:10;21.80;99.00
9265;DHT22;4669;49.594;10.958;2022-07-29T16:51:14;21.80;99.10
9265;DHT22;4669;49.594;10.958;2022-07-29T16:56:16;21.80;99.10
9265;DHT22;4669;49.594;10.958;2022-07-29T17:01:18;21.80;99.10
9265;DHT22;4669;49.594;10.958;2022-07-29T17:06:21;21.80;99.70
9265;DHT22;4669;49.594;10.958;2022-07-29T17:11:24;21.90;99.90
9265;DHT22;4669;49.594;10.958;2022-07-29T17:16:27;21.90;99.40
9265;DHT22;4669;49.594;10.958;2022-07-29T17:21:31;22.00;99.20
9265;DHT22;4669;49.594;10.958;2022-07-29T17:26:33;21.80;99.80
9265;DHT22;4669;49.594;10.958;2022-07-29T17:31:35;21.60;99.90
9265;DHT22;4669;49.594;10.958;2022-07-29T17:36:38;21.50;99.90
9265;DHT22;4669;49.594;10.958;2022-07-29T17:41:40;21.60;99.90
9265;DHT22;4669;49.594;10.958;2022-07-29T17:46:44;21.60;99.90
9265;DHT22;4669;49.594;10.958;2022-07-29T17:51:48;21.60;99.90
9265;DHT22;4669;49.594;10.958;2022-07-29T17:56:50;21.70;99.90
9265;DHT22;4669;49.594;10.958;2022-07-29T18:01:52;21.40;99.90
9265;DHT22;4669;49.594;10.958;2022-07-29T18:06:55;21.40;99.90
9265;DHT22;4669;49.594;10.958;2022-07-29T18:11:57;21.60;99.90
9265;DHT22;4669;49.594;10.958;2022-07-29T18:16:59;21.70;99.90
9265;DHT22;4669;49.594;10.958;2022-07-29T18:22:03;21.70;99.90
9265;DHT22;4669;49.594;10.958;2022-07-29T18:27:07;21.70;99.90
9265;DHT22;4669;49.594;10.958;2022-07-29T18:32:09;21.70;99.90
9265;DHT22;4669;49.594;10.958;2022-07-29T18:37:12;21.70;99.90
9265;DHT22;4669;49.594;10.958;2022-07-29T18:42:14;21.50;99.90
9265;DHT22;4669;49.594;10.958;2022-07-29T18:47:16;21.60;99.90
9265;DHT22;4669;49.594;10.958;2022-07-29T18:52:20;21.50;99.90
9265;DHT22;4669;49.594;10.958;2022-07-29T18:57:22;21.40;99.90
9265;DHT22;4669;49.594;10.958;2022-07-29T19:02:24;21.50;99.90
9265;DHT22;4669;49.594;10.958;2022-07-29T19:07:27;21.50;99.90
9265;DHT22;4669;49.594;10.958;2022-07-29T19:12:29;21.50;99.90
9265;DHT22;4669;49.594;10.958;2022-07-29T19:17:31;21.20;99.90
9265;DHT22;4669;49.594;10.958;2022-07-29T19:22:35;21.00;99.90
9265;DHT22;4669;49.594;10.958;2022-07-29T20:09:53;21.10;99.90
9265;DHT22;4669;49.594;10.958;2022-07-29T20:14:56;21.20;99.90
9265;DHT22;4669;49.594;10.958;2022-07-29T20:19:57;21.30;99.90
9265;DHT22;4669;49.594;10.958;2022-07-29T20:25:02;21.40;99.90
9265;DHT22;4669;49.594;10.958;2022-07-29T20:30:05;21.50;99.90
9265;DHT22;4669;49.594;10.958;2022-07-29T20:35:08;21.50;99.90
9265;DHT22;4669;49.594;10.958;2022-07-29T20:40:13;21.40;99.90
9265;DHT22;4669;49.594;10.958;2022-07-29T20:45:16;21.50;99.90
9265;DHT22;4669;49.594;10.958;2022-07-29T20:50:19;21.40;99.90
9265;DHT22;4669;49.594;10.958;2022-07-29T20:55:25;21.30;99.90
9265;DHT22;4669;49.594;10.958;2022-07-29T21:00:27;21.30;99.90
9265;DHT22;4669;49.594;10.958;2022-07-29T21:05:29;21.20;99.90
9265;DHT22;4669;49.594;10.958;2022-07-29T21:10:33;21.20;99.90
9265;DHT22;4669;49.594;10.958;2022-07-29T21:15:35;21.20;99.90
9265;DHT22;4669;49.594;10.958;2022-07-29T21:20:37;21.20;99.90
9265;DHT22;4669;49.594;10.958;2022-07-29T21:25:41;21.20;99.90
9265;DHT22;4669;49.594;10.958;2022-07-29T21:30:43;21.20;99.90
9265;DHT22;4669;49.594;10.958;2022-07-29T21:35:45;21.30;99.90
9265;DHT22;4669;49.594;10.958;2022-07-29T21:40:50;21.20;99.90
9265;DHT22;4669;49.594;10.958;2022-07-29T21:45:52;21.20;99.90
9265;DHT22;4669;49.594;10.958;2022-07-29T21:50:54;21.10;99.90
9265;DHT22;4669;49.594;10.958;2022-07-29T21:55:57;21.20;99.90
9265;DHT22;4669;49.594;10.958;2022-07-29T22:00:59;21.10;99.90
9265;DHT22;4669;49.594;10.958;2022-07-29T22:06:01;21.10;99.90
9265;DHT22;4669;49.594;10.958;2022-07-29T22:11:04;21.10;99.90
9265;DHT22;4669;49.594;10.958;2022-07-29T22:16:06;21.10;99.90
9265;DHT22;4669;49.594;10.958;2022-07-29T22:21:09;21.10;99.90
9265;DHT22;4669;49.594;10.958;2022-07-29T22:26:13;21.00;99.90
9265;DHT22;4669;49.594;10.958;2022-07-29T22:31:15;21.00;99.90
9265;DHT22;4669;49.594;10.958;2022-07-29T22:36:17;20.90;99.90
9265;DHT22;4669;49.594;10.958;2022-07-29T22:41:20;21.00;99.90
9265;DHT22;4669;49.594;10.958;2022-07-29T22:46:22;20.90;99.90
9265;DHT22;4669;49.594;10.958;2022-07-29T22:51:24;20.90;99.90
9265;DHT22;4669;49.594;10.958;2022-07-29T22:56:27;20.90;99.90
9265;DHT22;4669;49.594;10.958;2022-07-29T23:01:29;20.80;99.90
9265;DHT22;4669;49.594;10.958;2022-07-29T23:06:32;20.70;99.90
9265;DHT22;4669;49.594;10.958;2022-07-29T23:11:35;20.60;99.90
9265;DHT22;4669;49.594;10.958;2022-07-29T23:16:37;20.60;99.90
9265;DHT22;4669;49.594;10.958;2022-07-29T23:21:39;20.50;99.90
9265;DHT22;4669;49.594;10.958;2022-07-29T23:26:43;20.50;99.90
9265;DHT22;4669;49.594;10.958;2022-07-29T23:31:45;20.50;99.90
9265;DHT22;4669;49.594;10.958;2022-07-29T23:36:46;20.50;99.90
9265;DHT22;4669;49.594;10.958;2022-07-29T23:41:50;20.40;99.90
9265;DHT22;4669;49.594;10.958;2022-07-29T23:46:52;20.30;99.90
9265;DHT22;4669;49.594;10.958;2022-07-29T23:51:54;20.30;99.90
9265;DHT22;4669;49.594;10.958;2022-07-29T23:56:57;20.30;99.90
